Time;durP1;ratioP1;P1;durP2;ratioP2;P2;SDS_P1;SDS_P2;PMS_P1;PMS_P2;Temp;Humidity;BMP_temperature;BMP_pressure;BME280_temperature;BME280_humidity;BME280_pressure;Samples;Min_cycle;Max_cycle;Signal;HPM_P1;HPM_P2
2023/03/22 05:13:08;;;;;;;30.08;16.02;;;;;;;4.78;100.00;100300.75;5558926;32;185919;-83
2023/03/22 05:16:11;;;;;;;26.62;16.83;;;;;;;4.81;100.00;100298.00;5545946;32;33907;-83
2023/03/22 05:19:21;;;;;;;30.42;16.12;;;;;;;5.02;100.00;100293.09;5545745;32;35128;-83
2023/03/22 05:22:24;;;;;;;34.88;16.35;;;;;;;5.10;100.00;100299.88;5546149;32;34703;-83
2023/03/22 05:25:28;;;;;;;31.02;17.40;;;;;;;5.26;100.00;100302.91;5545917;32;33913;-82
2023/03/22 05:28:33;;;;;;;34.13;16.90;;;;;;;5.44;100.00;100297.16;5566501;32;33913;-83
2023/03/22 05:31:36;;;;;;;26.15;16.05;;;;;;;5.53;100.00;100299.50;5567373;32;33676;-83
2023/03/22 05:34:40;;;;;;;29.30;16.02;;;;;;;5.79;100.00;100303.12;5571124;32;33951;-83
2023/03/22 05:37:44;;;;;;;26.70;15.52;;;;;;;5.91;100.00;100309.75;5567321;32;34045;-83
2023/03/22 05:40:48;;;;;;;25.00;15.23;;;;;;;6.00;100.00;100313.88;5568041;32;34031;-84
2023/03/22 05:43:56;;;;;;;21.62;14.90;;;;;;;6.15;100.00;100313.44;5568000;32;34080;-84
2023/03/22 05:46:59;;;;;;;22.48;14.93;;;;;;;6.33;100.00;100298.78;5568215;32;33809;-84
2023/03/22 05:50:02;;;;;;;19.48;13.98;;;;;;;6.61;100.00;100303.09;5568911;32;34727;-84
2023/03/22 05:53:06;;;;;;;23.05;14.40;;;;;;;6.92;100.00;100313.50;5569034;32;34590;-85
2023/03/22 05:56:10;;;;;;;22.52;13.95;;;;;;;7.18;100.00;100317.00;5575049;32;34662;-84
2023/03/22 05:59:14;;;;;;;21.35;14.40;;;;;;;7.50;100.00;100313.12;5575776;32;34078;-84
2023/03/22 06:02:16;;;;;;;22.90;13.88;;;;;;;7.87;100.00;100321.44;5577756;32;33741;-83
2023/03/22 06:05:19;;;;;;;20.10;13.93;;;;;;;8.22;100.00;100319.16;5579286;32;34989;-83
2023/03/22 06:08:23;;;;;;;20.62;14.73;;;;;;;8.57;100.00;100323.06;5579725;32;34295;-82
2023/03/22 06:11:32;;;;;;;22.58;13.88;;;;;;;8.76;100.00;100329.28;5578395;32;35311;-83
2023/03/22 06:14:36;;;;;;;22.50;14.27;;;;;;;8.77;100.00;100333.62;5574594;32;34737;-87
2023/03/22 06:17:41;;;;;;;19.30;13.65;;;;;;;9.16;100.00;100320.53;5569347;32;34007;-88
2023/03/22 06:20:44;;;;;;;24.48;14.07;;;;;;;9.37;100.00;100323.12;5578509;32;34780;-84
2023/03/22 06:23:48;;;;;;;19.35;13.52;;;;;;;11.25;98.54;100327.25;5586786;32;34848;-84
2023/03/22 06:26:51;;;;;;;19.12;13.95;;;;;;;14.28;78.32;100334.31;5582759;32;33973;-83
2023/03/22 06:29:54;;;;;;;18.58;13.32;;;;;;;15.93;68.63;100335.59;5575021;32;35211;-83
2023/03/22 06:32:59;;;;;;;20.52;13.35;;;;;;;15.49;69.05;100339.50;5573902;32;34379;-84
2023/03/22 06:36:03;;;;;;;19.02;12.88;;;;;;;15.11;71.65;100336.84;5574193;32;34685;-83
2023/03/22 06:39:06;;;;;;;21.55;13.75;;;;;;;15.74;67.50;100342.25;5554176;32;34177;-84
2023/03/22 06:42:10;;;;;;;20.75;13.85;;;;;;;15.36;70.07;100344.03;5553847;32;33682;-85
2023/03/22 06:45:15;;;;;;;21.33;13.95;;;;;;;16.28;65.40;100342.81;5560730;32;34270;-84
2023/03/22 06:48:18;;;;;;;22.42;14.05;;;;;;;17.96;57.47;100348.72;5558701;32;34148;-84
2023/03/22 06:51:22;;;;;;;22.80;16.70;;;;;;;18.27;50.63;100356.97;5558455;32;34039;-84
2023/03/22 06:54:25;;;;;;;22.65;16.60;;;;;;;18.20;50.78;100347.69;5560641;32;34301;-84
2023/03/22 06:57:28;;;;;;;21.95;16.17;;;;;;;17.65;52.24;100346.66;5560508;32;34446;-85
2023/03/22 07:00:33;;;;;;;21.58;16.37;;;;;;;16.25;55.56;100345.75;5550973;32;33643;-84
2023/03/22 07:03:36;;;;;;;22.92;15.90;;;;;;;16.42;56.21;100347.16;5554673;32;33889;-84
2023/03/22 07:06:39;;;;;;;23.85;16.02;;;;;;;15.45;57.85;100346.03;5546710;32;33933;-85
2023/03/22 07:09:42;;;;;;;21.02;15.32;;;;;;;15.23;60.56;100352.03;5558887;32;34561;-85
2023/03/22 07:12:47;;;;;;;22.42;15.98;;;;;;;15.28;60.46;100352.56;5570703;32;34390;-83
2023/03/22 07:15:58;;;;;;;23.12;16.75;;;;;;;15.27;60.32;100350.88;5564038;32;33897;-84
2023/03/22 07:19:02;;;;;;;21.12;16.42;;;;;;;15.05;61.25;100348.84;5555755;32;34151;-84
2023/03/22 07:22:05;;;;;;;20.02;14.20;;;;;;;15.24;60.51;100356.41;5566186;32;33768;-85
2023/03/22 07:25:09;;;;;;;21.95;14.70;;;;;;;15.34;59.16;100370.84;5572625;32;33911;-86
2023/03/22 07:28:14;;;;;;;18.83;14.80;;;;;;;15.25;59.18;100371.50;5568765;32;34238;-85
2023/03/22 07:31:18;;;;;;;20.65;16.90;;;;;;;14.94;59.98;100365.63;5564188;32;34445;-85
2023/03/22 07:34:21;;;;;;;20.83;15.20;;;;;;;14.75;61.65;100358.84;5547316;32;33395;-85
2023/03/22 07:37:25;;;;;;;22.75;15.73;;;;;;;15.06;59.79;100353.22;5548278;32;34612;-84
2023/03/22 07:40:29;;;;;;;18.87;14.50;;;;;;;14.99;61.39;100352.78;5547291;32;33645;-84
2023/03/22 07:43:33;;;;;;;24.40;14.15;;;;;;;15.73;58.23;100353.91;5547274;32;34142;-83
2023/03/22 07:46:56;;;;;;;18.80;14.30;;;;;;;15.33;58.36;100353.09;5551373;32;33882;-83
2023/03/22 07:50:00;;;;;;;18.65;14.32;;;;;;;15.57;57.84;100349.66;5545142;32;34094;-83
2023/03/22 07:53:04;;;;;;;24.48;15.40;;;;;;;15.27;57.70;100355.34;5534836;32;34568;-85
2023/03/22 07:56:07;;;;;;;19.12;14.05;;;;;;;15.03;59.40;100354.28;5544296;32;34620;-85
2023/03/22 07:59:11;;;;;;;21.98;14.77;;;;;;;15.03;59.17;100351.59;5545232;32;34544;-89
2023/03/22 08:02:14;;;;;;;21.75;14.07;;;;;;;14.57;60.39;100344.88;5533767;32;33873;-89
2023/03/22 08:05:19;;;;;;;17.02;13.10;;;;;;;15.05;59.65;100339.00;5539312;32;33819;-90
2023/03/22 08:08:23;;;;;;;22.90;13.90;;;;;;;14.75;59.59;100334.81;5564937;32;34469;-86
2023/03/22 08:11:26;;;;;;;22.17;14.05;;;;;;;14.80;60.03;100343.34;5573051;32;34677;-87
2023/03/22 08:14:28;;;;;;;19.87;13.95;;;;;;;14.44;60.90;100339.53;5573697;32;34739;-85
2023/03/22 08:17:38;;;;;;;21.37;13.30;;;;;;;15.28;58.89;100341.87;5572181;32;34353;-85
2023/03/22 08:20:44;;;;;;;24.65;12.50;;;;;;;16.23;55.80;100339.63;5570106;32;31756;-86
2023/03/22 08:23:49;;;;;;;17.90;13.10;;;;;;;16.07;55.19;100338.09;5570299;32;34605;-85
2023/03/22 08:26:55;;;;;;;17.85;12.82;;;;;;;15.69;56.00;100350.59;5575119;32;33268;-85
2023/03/22 08:29:59;;;;;;;18.30;12.95;;;;;;;16.10;54.66;100348.56;5573300;32;34210;-84
2023/03/22 08:33:02;;;;;;;21.62;14.20;;;;;;;16.29;55.35;100348.06;5562206;32;35227;-84
2023/03/22 08:36:10;;;;;;;20.02;13.90;;;;;;;16.48;54.39;100343.16;5545314;32;34231;-85
2023/03/22 08:39:14;;;;;;;19.52;13.48;;;;;;;15.96;55.89;100351.41;5560621;32;35055;-86
2023/03/22 08:42:19;;;;;;;17.30;12.63;;;;;;;16.20;55.37;100353.25;5561439;32;33675;-86
2023/03/22 08:45:22;;;;;;;17.77;11.18;;;;;;;16.33;54.81;100345.19;5549471;32;34924;-85
2023/03/22 08:48:27;;;;;;;18.73;9.88;;;;;;;16.33;54.87;100347.88;5548235;32;34573;-84
2023/03/22 08:51:32;;;;;;;15.38;10.90;;;;;;;16.37;53.04;100347.50;5552770;32;34187;-85
2023/03/22 08:54:37;;;;;;;17.65;11.07;;;;;;;15.58;55.11;100345.16;5543668;32;34225;-85
2023/03/22 08:57:40;;;;;;;16.40;10.00;;;;;;;15.56;55.85;100347.09;5542234;32;33286;-84
2023/03/22 09:00:50;;;;;;;18.08;10.18;;;;;;;15.69;55.70;100349.75;5532232;32;34063;-85
2023/03/22 09:03:53;;;;;;;17.98;11.20;;;;;;;15.54;56.41;100351.69;5552714;32;33910;-84
2023/03/22 09:06:56;;;;;;;14.40;11.30;;;;;;;16.16;54.92;100358.81;5551037;32;34251;-85
2023/03/22 09:09:59;;;;;;;19.62;11.05;;;;;;;16.37;53.92;100355.53;5556374;32;33791;-85
2023/03/22 09:13:02;;;;;;;14.07;10.57;;;;;;;16.04;54.70;100351.69;5552214;32;33649;-85
2023/03/22 09:16:07;;;;;;;17.23;11.80;;;;;;;16.74;53.72;100356.41;5550653;32;33885;-85
2023/03/22 09:19:11;;;;;;;19.48;12.25;;;;;;;17.04;52.23;100355.06;5550544;32;33732;-85
2023/03/22 09:22:15;;;;;;;16.67;10.75;;;;;;;16.37;54.09;100349.31;5550254;32;34032;-85
2023/03/22 09:25:20;;;;;;;19.70;11.30;;;;;;;17.03;52.82;100347.97;5555237;32;34187;-84
2023/03/22 09:28:23;;;;;;;20.37;12.10;;;;;;;16.84;52.40;100352.03;5555518;32;34129;-85
2023/03/22 09:31:26;;;;;;;17.45;11.90;;;;;;;16.95;52.11;100346.72;5556863;32;34188;-85
2023/03/22 09:34:31;;;;;;;15.32;11.90;;;;;;;17.01;51.75;100340.03;5549698;32;33832;-84
2023/03/22 09:37:35;;;;;;;15.23;11.02;;;;;;;16.88;52.28;100337.44;5534038;32;33706;-84
2023/03/22 09:41:00;;;;;;;17.30;11.52;;;;;;;16.74;53.76;100340.34;5534251;32;33862;-83
2023/03/22 09:44:11;;;;;;;15.55;10.57;;;;;;;16.94;52.93;100328.94;5531982;32;34266;-83
2023/03/22 09:47:32;;;;;;;17.83;12.00;;;;;;;17.09;52.40;100329.59;5536956;32;33603;-83
2023/03/22 09:50:50;;;;;;;18.50;10.95;;;;;;;17.11;54.78;100326.81;5533387;32;34245;-84
2023/03/22 09:53:54;;;;;;;19.92;11.15;;;;;;;17.37;51.56;100324.75;5531115;32;34427;-86
2023/03/22 09:57:09;;;;;;;15.88;11.15;;;;;;;17.40;51.77;100325.47;5532447;32;34305;-86
2023/03/22 10:00:26;;;;;;;17.55;10.90;;;;;;;16.78;52.77;100323.91;5552170;32;34293;-86
2023/03/22 10:03:50;;;;;;;14.07;10.77;;;;;;;17.10;52.92;100322.44;5552678;32;33852;-86
2023/03/22 10:07:03;;;;;;;12.82;9.80;;;;;;;17.55;51.55;100326.91;5552765;32;34173;-87
2023/03/22 10:10:20;;;;;;;14.75;10.68;;;;;;;17.51;51.88;100330.84;5554683;32;33924;-87
2023/03/22 10:14:12;;;;;;;13.25;10.00;;;;;;;17.13;51.34;100323.97;5555753;32;34408;-85
2023/03/22 10:17:18;;;;;;;16.70;10.30;;;;;;;17.18;52.25;100322.66;5556927;32;34851;-85
2023/03/22 10:20:39;;;;;;;13.20;9.27;;;;;;;17.07;51.96;100320.84;5560304;32;33939;-85
2023/03/22 10:23:49;;;;;;;13.80;9.95;;;;;;;17.00;52.87;100319.56;5557685;32;33846;-84
2023/03/22 10:26:53;;;;;;;15.70;9.57;;;;;;;17.04;51.95;100320.22;5560125;32;34288;-84
2023/03/22 10:30:07;;;;;;;15.02;9.40;;;;;;;16.40;53.91;100320.50;5555855;32;34280;-84
2023/03/22 10:33:21;;;;;;;20.90;9.55;;;;;;;16.24;54.52;100323.47;5542754;32;34922;-84
2023/03/22 10:36:30;;;;;;;19.02;9.88;;;;;;;16.28;54.79;100324.97;5536897;32;34835;-83
2023/03/22 10:39:37;;;;;;;14.18;9.48;;;;;;;16.43;54.47;100319.41;5549358;32;35417;-83
2023/03/22 10:42:50;;;;;;;13.85;9.75;;;;;;;16.36;54.43;100315.50;5553552;32;34078;-84
2023/03/22 10:45:55;;;;;;;13.65;9.07;;;;;;;16.20;55.13;100324.69;5551555;32;34621;-83
2023/03/22 10:48:59;;;;;;;23.25;9.88;;;;;;;16.14;54.92;100314.44;5537519;32;34313;-83
2023/03/22 10:52:15;;;;;;;19.02;9.98;;;;;;;15.97;55.33;100313.84;5536943;32;33877;-83
2023/03/22 10:55:18;;;;;;;14.87;9.57;;;;;;;15.85;56.17;100310.22;5551518;32;34512;-84
2023/03/22 10:58:27;;;;;;;21.92;10.70;;;;;;;15.69;57.31;100312.31;5551592;32;33813;-84
2023/03/22 11:01:40;;;;;;;13.43;9.75;;;;;;;15.62;57.49;100309.22;5565000;32;34295;-86
2023/03/22 11:04:55;;;;;;;16.60;9.50;;;;;;;15.61;57.51;100305.72;5565071;32;34140;-85
2023/03/22 11:08:01;;;;;;;15.52;9.52;;;;;;;15.58;57.53;100295.22;5557498;32;35345;-84
2023/03/22 11:11:06;;;;;;;12.30;9.63;;;;;;;15.52;57.30;100301.00;5553830;32;34944;-85
2023/03/22 11:14:15;;;;;;;15.10;10.43;;;;;;;15.04;59.16;100291.87;5562527;32;34166;-85
2023/03/22 11:17:24;;;;;;;17.90;9.90;;;;;;;15.03;59.29;100292.00;5564714;32;34899;-85
2023/03/22 11:20:28;;;;;;;15.38;9.98;;;;;;;15.13;58.84;100281.53;5563382;32;35908;-85
2023/03/22 11:23:34;;;;;;;14.63;9.93;;;;;;;15.12;59.16;100280.66;5555972;32;33976;-85
2023/03/22 11:26:37;;;;;;;17.77;10.93;;;;;;;15.07;59.67;100280.13;5558170;32;33752;-86
2023/03/22 11:29:46;;;;;;;17.20;10.93;;;;;;;14.88;60.28;100272.56;5557799;32;34420;-86
2023/03/22 11:33:00;;;;;;;18.48;11.48;;;;;;;14.53;62.47;100273.97;5552374;32;33922;-85
2023/03/22 11:36:15;;;;;;;16.67;11.30;;;;;;;14.78;61.88;100267.84;5556637;32;34097;-85
2023/03/22 11:39:23;;;;;;;17.73;11.35;;;;;;;15.01;61.02;100267.19;5556288;32;34416;-85
2023/03/22 11:42:26;;;;;;;17.02;11.48;;;;;;;15.05;61.01;100266.03;5555216;32;34532;-85
2023/03/22 11:45:36;;;;;;;17.25;11.05;;;;;;;15.34;60.38;100268.47;5540885;32;33854;-85
2023/03/22 11:48:40;;;;;;;17.33;11.45;;;;;;;15.54;59.52;100261.66;5555182;32;33893;-85
2023/03/22 11:51:44;;;;;;;18.90;11.18;;;;;;;15.59;58.76;100258.66;5552103;32;34478;-84
2023/03/22 11:54:48;;;;;;;22.55;12.07;;;;;;;15.96;58.19;100252.44;5543128;32;33970;-85
2023/03/22 11:57:55;;;;;;;17.15;11.57;;;;;;;15.67;57.96;100253.59;5549854;32;33894;-85
2023/03/22 12:01:00;;;;;;;18.55;11.80;;;;;;;15.61;58.37;100254.03;5555403;32;34182;-84
2023/03/22 12:04:07;;;;;;;15.50;11.05;;;;;;;16.08;56.85;100256.88;5546410;32;34621;-87
2023/03/22 12:07:16;;;;;;;17.67;11.75;;;;;;;16.20;56.04;100257.78;5541354;32;34059;-85
2023/03/22 12:10:31;;;;;;;16.70;10.70;;;;;;;16.13;55.21;100254.69;5556628;32;34304;-89
2023/03/22 12:13:58;;;;;;;17.62;10.70;;;;;;;16.55;54.99;100261.41;5562999;32;33872;-85
2023/03/22 12:17:10;;;;;;;16.27;10.27;;;;;;;16.72;54.20;100252.06;5557945;32;34932;-83
2023/03/22 12:20:48;;;;;;;13.70;9.80;;;;;;;17.13;53.26;100256.97;5554117;32;34144;-84
2023/03/22 12:23:54;;;;;;;17.87;10.73;;;;;;;17.52;50.26;100260.97;5550699;32;34020;-84
2023/03/22 12:27:02;;;;;;;16.87;9.52;;;;;;;17.22;51.28;100253.59;5552436;32;34266;-83
2023/03/22 12:30:17;;;;;;;12.27;9.63;;;;;;;17.57;50.62;100249.03;5554534;32;33436;-83
2023/03/22 12:33:31;;;;;;;14.48;9.00;;;;;;;17.72;49.83;100246.91;5551813;32;34157;-83
2023/03/22 12:36:49;;;;;;;18.42;10.50;;;;;;;17.92;50.19;100248.78;5553109;32;33913;-83
2023/03/22 12:39:58;;;;;;;15.07;10.45;;;;;;;18.11;48.01;100249.12;5553008;32;34165;-83
2023/03/22 12:43:24;;;;;;;17.10;10.38;;;;;;;17.59;50.59;100247.94;5555029;32;33785;-84
2023/03/22 12:46:33;;;;;;;15.77;9.65;;;;;;;17.96;49.29;100252.09;5553997;32;34044;-83
2023/03/22 12:49:52;;;;;;;18.37;9.75;;;;;;;17.65;50.67;100247.41;5557553;32;34153;-84
2023/03/22 12:52:57;;;;;;;16.60;9.60;;;;;;;17.76;48.93;100243.84;5557450;32;34023;-84
2023/03/22 12:56:01;;;;;;;12.65;9.55;;;;;;;17.67;49.02;100244.63;5552365;32;34441;-84
2023/03/22 12:59:11;;;;;;;14.05;8.98;;;;;;;17.45;49.37;100238.31;5553124;32;34653;-84
2023/03/22 13:02:22;;;;;;;9.77;7.20;;;;;;;17.32;49.89;100237.59;5554110;32;33740;-84
2023/03/22 13:05:32;;;;;;;11.07;5.62;;;;;;;17.58;47.96;100231.94;5549936;32;33938;-84
2023/03/22 13:09:11;;;;;;;11.15;5.37;;;;;;;17.69;46.16;100223.87;5551822;32;33718;-84
2023/03/22 13:12:17;;;;;;;7.18;4.40;;;;;;;18.01;44.54;100216.81;5544707;32;34204;-84
2023/03/22 13:15:32;;;;;;;8.30;5.37;;;;;;;18.03;43.84;100213.03;5550810;32;33127;-85
2023/03/22 13:18:44;;;;;;;8.65;4.93;;;;;;;18.27;43.65;100209.28;5549562;32;34546;-85
2023/03/22 13:21:48;;;;;;;5.87;4.32;;;;;;;18.36;44.24;100201.41;5544371;32;33914;-86
2023/03/22 13:25:12;;;;;;;4.90;3.60;;;;;;;18.42;42.39;100201.72;5548718;32;33814;-85
2023/03/22 13:28:25;;;;;;;7.50;3.62;;;;;;;18.47;41.34;100198.66;5548517;32;33907;-86
2023/03/22 13:31:44;;;;;;;7.57;3.83;;;;;;;18.56;41.39;100197.84;5548345;32;33915;-85
2023/03/22 13:34:51;;;;;;;4.12;3.15;;;;;;;18.66;41.03;100197.06;5545858;32;34690;-85
2023/03/22 13:38:01;;;;;;;3.53;3.22;;;;;;;18.74;40.54;100193.72;5545358;32;33752;-85
2023/03/22 13:41:08;;;;;;;4.75;3.30;;;;;;;18.54;41.20;100188.22;5555269;32;34438;-85
2023/03/22 13:44:25;;;;;;;4.60;3.10;;;;;;;18.72;40.20;100193.84;5559510;32;34408;-85
2023/03/22 13:47:45;;;;;;;3.53;3.22;;;;;;;18.50;39.87;100193.03;5562940;32;35149;-84
2023/03/22 13:50:48;;;;;;;4.28;3.42;;;;;;;18.28;41.23;100184.13;5554592;32;34306;-85
2023/03/22 13:54:22;;;;;;;6.68;3.83;;;;;;;18.26;40.95;100187.94;5551913;32;33736;-85
2023/03/22 13:57:45;;;;;;;4.62;3.40;;;;;;;18.38;41.43;100180.66;5554207;32;34009;-85
2023/03/22 14:00:53;;;;;;;7.35;4.53;;;;;;;18.52;40.15;100176.78;5551741;32;34238;-85
2023/03/22 14:04:00;;;;;;;7.78;5.00;;;;;;;18.24;41.71;100174.62;5549599;32;34556;-89
2023/03/22 14:07:19;;;;;;;8.93;5.40;;;;;;;18.02;43.92;100165.72;5552248;32;34257;-85
2023/03/22 14:10:40;;;;;;;7.10;5.22;;;;;;;18.29;42.53;100169.72;5551278;32;33742;-86
2023/03/22 14:13:53;;;;;;;8.25;5.18;;;;;;;18.26;42.44;100167.28;5645222;26;34058;-87
2023/03/22 14:17:12;;;;;;;9.07;5.62;;;;;;;18.01;42.58;100160.47;5575619;31;33927;-87
2023/03/22 14:20:19;;;;;;;7.03;4.75;;;;;;;18.04;42.43;100161.06;5570815;32;33261;-86
2023/03/22 14:23:50;;;;;;;5.60;4.05;;;;;;;17.82;42.87;100156.66;5570054;32;33521;-85
2023/03/22 14:26:54;;;;;;;8.70;4.55;;;;;;;17.88;41.63;100152.59;5576346;32;34160;-86
2023/03/22 14:29:56;;;;;;;6.28;4.32;;;;;;;17.64;42.44;100154.53;5572983;31;34369;-86
2023/03/22 14:33:00;;;;;;;7.25;4.35;;;;;;;17.81;41.73;100148.72;5575569;31;34153;-86
2023/03/22 14:36:06;;;;;;;7.32;4.80;;;;;;;18.00;41.77;100156.91;5568963;32;33982;-86
2023/03/22 14:39:32;;;;;;;7.68;4.72;;;;;;;17.85;40.88;100152.87;5583543;31;33884;-86
2023/03/22 14:42:34;;;;;;;9.90;4.78;;;;;;;17.54;41.81;100150.06;5582776;31;35092;-86
2023/03/22 14:45:36;;;;;;;7.00;5.30;;;;;;;17.61;42.16;100153.94;5572185;32;34570;-86
2023/03/22 14:48:38;;;;;;;6.47;5.05;;;;;;;17.60;42.65;100154.94;5569487;32;34012;-86
2023/03/22 14:51:42;;;;;;;12.85;6.60;;;;;;;17.58;43.07;100149.69;5571273;32;33733;-90
2023/03/22 14:54:59;;;;;;;11.98;6.30;;;;;;;17.61;43.46;100148.56;5570607;32;34342;-89
2023/03/22 14:58:02;;;;;;;9.48;6.68;;;;;;;17.28;44.00;100143.19;5571807;32;34060;-85
2023/03/22 15:01:12;;;;;;;10.52;6.50;;;;;;;17.29;44.09;100130.66;5579667;32;34239;-85
2023/03/22 15:04:15;;;;;;;8.93;6.23;;;;;;;17.14;44.75;100138.13;5578117;32;34516;-85
2023/03/22 15:07:19;;;;;;;9.02;6.40;;;;;;;16.95;45.16;100136.91;5575302;32;35602;-85
2023/03/22 15:10:28;;;;;;;11.73;7.05;;;;;;;17.04;45.45;100129.97;5584361;31;33769;-85
2023/03/22 15:13:31;;;;;;;11.48;7.32;;;;;;;16.93;46.16;100133.47;5581014;31;34253;-85
2023/03/22 15:16:35;;;;;;;11.60;7.35;;;;;;;16.94;46.26;100136.03;5556902;32;33969;-85
2023/03/22 15:19:43;;;;;;;15.10;8.10;;;;;;;16.71;47.20;100132.53;5577024;32;34103;-85
2023/03/22 15:22:53;;;;;;;10.70;6.82;;;;;;;16.79;47.36;100118.53;5570717;32;34457;-85
2023/03/22 15:25:59;;;;;;;10.90;7.80;;;;;;;16.82;47.77;100121.81;5567631;32;34210;-85
2023/03/22 15:29:06;;;;;;;12.90;8.40;;;;;;;16.82;48.35;100120.94;5570534;32;34351;-85
2023/03/22 15:32:21;;;;;;;13.48;8.25;;;;;;;16.76;48.41;100116.94;5575410;32;33873;-85
2023/03/22 15:35:25;;;;;;;13.23;8.38;;;;;;;16.75;48.50;100114.38;5571310;32;34415;-85
2023/03/22 15:38:37;;;;;;;19.33;8.52;;;;;;;16.52;48.97;100112.56;5570438;32;33770;-85
2023/03/22 15:41:41;;;;;;;14.68;8.43;;;;;;;16.47;49.23;100112.06;5569792;32;33646;-85
2023/03/22 15:44:58;;;;;;;16.60;7.87;;;;;;;16.55;49.40;100114.97;5569632;32;33695;-85
2023/03/22 15:48:14;;;;;;;13.13;8.13;;;;;;;16.59;49.61;100118.28;5569024;32;34078;-85
2023/03/22 15:51:19;;;;;;;12.07;8.02;;;;;;;16.57;49.44;100117.53;5569779;32;33684;-85
2023/03/22 15:54:29;;;;;;;14.10;8.50;;;;;;;16.48;49.79;100113.78;5569075;32;34316;-85
2023/03/22 15:57:36;;;;;;;12.27;8.77;;;;;;;16.59;50.12;100107.56;5566387;32;34066;-90
2023/03/22 16:00:40;;;;;;;12.70;8.95;;;;;;;16.69;49.45;100110.34;5568921;32;34376;-86
2023/03/22 16:03:51;;;;;;;15.20;8.68;;;;;;;16.39;50.24;100107.31;5569762;32;34012;-86
2023/03/22 16:06:52;;;;;;;12.75;8.48;;;;;;;16.40;50.42;100113.53;5569062;32;33961;-86
2023/03/22 16:09:55;;;;;;;14.38;8.90;;;;;;;16.39;50.58;100107.31;5572835;32;33894;-86
2023/03/22 16:12:57;;;;;;;13.93;8.45;;;;;;;16.30;50.70;100113.41;5571916;32;34191;-86
2023/03/22 16:15:59;;;;;;;11.50;8.30;;;;;;;16.22;51.14;100113.12;5569540;32;34750;-86
2023/03/22 16:19:01;;;;;;;15.18;8.30;;;;;;;16.11;51.32;100111.31;5569808;32;34439;-86
